Time;durP1;ratioP1;P1;durP2;ratioP2;P2;SDS_P1;SDS_P2;PMS_P1;PMS_P2;Temp;Humidity;BMP_temperature;BMP_pressure;BME280_temperature;BME280_humidity;BME280_pressure;Samples;Min_cycle;Max_cycle;Signal;HPM_P1;HPM_P2
2024/01/03 00:02:19;;;;;;;7.20;4.53;;;;;;;;;;5075533;28;20032;-67
2024/01/03 00:04:44;;;;;;;6.07;4.38;;;;;;;;;;5056727;28;20029;-67
2024/01/03 00:07:10;;;;;;;5.68;4.28;;;;;;;;;;5056427;28;20474;-67
2024/01/03 00:09:36;;;;;;;4.80;4.10;;;;;;;;;;5096224;22;20149;-69
2024/01/03 00:12:03;;;;;;;5.53;4.30;;;;;;;;;;5076003;22;20108;-69
2024/01/03 00:14:32;;;;;;;5.60;3.38;;;;;;;;;;5036397;28;20035;-69
2024/01/03 00:17:02;;;;;;;3.60;3.22;;;;;;;;;;5054556;28;20060;-69
2024/01/03 00:25:30;;;;;;;2.95;2.58;;;;;;;;;;5032017;28;20050;-71
2024/01/03 00:27:56;;;;;;;3.08;2.78;;;;;;;;;;5034295;28;20167;-77
2024/01/03 00:30:21;;;;;;;3.33;2.60;;;;;;;;;;5034543;28;20503;-77
2024/01/03 00:32:47;;;;;;;3.30;2.75;;;;;;;;;;5034598;28;20029;-77
2024/01/03 00:35:13;;;;;;;2.67;2.47;;;;;;;;;;5034919;28;20043;-78
2024/01/03 00:37:40;;;;;;;2.42;2.22;;;;;;;;;;5033927;28;20022;-78
2024/01/03 00:40:23;;;;;;;2.72;2.50;;;;;;;;;;5016235;28;20040;-78
2024/01/03 00:42:49;;;;;;;2.75;2.55;;;;;;;;;;5033029;28;20053;-76
2024/01/03 00:45:14;;;;;;;3.20;3.00;;;;;;;;;;5032670;28;20475;-77
2024/01/03 00:47:39;;;;;;;3.25;2.80;;;;;;;;;;5032620;28;20048;-77
2024/01/03 00:50:06;;;;;;;2.30;2.13;;;;;;;;;;5032423;28;20033;-77
2024/01/03 00:52:33;;;;;;;2.35;2.08;;;;;;;;;;5034055;28;20026;-77
2024/01/03 00:54:58;;;;;;;3.05;2.80;;;;;;;;;;5032461;28;20030;-77
2024/01/03 00:57:24;;;;;;;2.30;2.00;;;;;;;;;;5034291;28;20092;-74
2024/01/03 00:59:49;;;;;;;2.65;2.40;;;;;;;;;;5034257;28;20029;-76
2024/01/03 01:02:15;;;;;;;2.75;2.45;;;;;;;;;;5033639;28;20107;-76
2024/01/03 01:04:41;;;;;;;3.45;2.63;;;;;;;;;;5015956;28;20021;-77
2024/01/03 01:07:07;;;;;;;2.40;2.20;;;;;;;;;;5033882;28;20034;-77
2024/01/03 01:09:32;;;;;;;2.22;2.03;;;;;;;;;;5032279;28;20033;-77
2024/01/03 01:11:58;;;;;;;2.20;2.00;;;;;;;;;;5033621;28;20021;-76
2024/01/03 01:14:23;;;;;;;2.33;2.13;;;;;;;;;;5034098;28;20375;-77
2024/01/03 01:16:49;;;;;;;1.85;1.73;;;;;;;;;;5033680;28;20032;-77
2024/01/03 01:19:14;;;;;;;2.53;2.33;;;;;;;;;;5034048;28;20423;-77
2024/01/03 01:21:40;;;;;;;2.40;2.03;;;;;;;;;;5033575;28;20032;-76
2024/01/03 01:24:06;;;;;;;2.28;2.03;;;;;;;;;;5033567;28;20132;-77
2024/01/03 01:26:31;;;;;;;2.22;1.95;;;;;;;;;;5033891;28;20060;-78
2024/01/03 01:29:00;;;;;;;4.13;2.85;;;;;;;;;;5032069;28;20026;-77
2024/01/03 01:31:25;;;;;;;2.38;2.17;;;;;;;;;;5033587;28;20025;-77
2024/01/03 01:33:59;;;;;;;2.63;2.17;;;;;;;;;;5035079;28;20044;-76
2024/01/03 01:36:24;;;;;;;2.25;2.05;;;;;;;;;;5036263;28;20120;-77
2024/01/03 01:38:50;;;;;;;1.50;1.40;;;;;;;;;;5036411;28;20061;-76
2024/01/03 01:41:15;;;;;;;1.45;1.35;;;;;;;;;;5019963;28;20042;-76
2024/01/03 01:43:40;;;;;;;1.30;1.17;;;;;;;;;;5036805;28;20083;-76
2024/01/03 01:46:07;;;;;;;1.25;1.15;;;;;;;;;;5019755;28;20033;-77
2024/01/03 01:48:32;;;;;;;2.17;1.30;;;;;;;;;;5037018;28;20029;-76
2024/01/03 01:50:58;;;;;;;1.33;1.23;;;;;;;;;;5037124;28;20040;-76
2024/01/03 01:53:25;;;;;;;1.10;1.10;;;;;;;;;;5037325;28;20030;-77
2024/01/03 01:55:51;;;;;;;1.33;1.23;;;;;;;;;;5037307;28;20022;-76
2024/01/03 01:58:16;;;;;;;2.50;1.48;;;;;;;;;;5019505;28;20360;-77
2024/01/03 02:00:42;;;;;;;1.33;1.10;;;;;;;;;;5019197;28;20041;-76
2024/01/03 02:03:08;;;;;;;1.40;1.30;;;;;;;;;;5035604;28;20033;-71
2024/01/03 02:05:37;;;;;;;1.27;1.20;;;;;;;;;;5037473;28;20031;-72
2024/01/03 02:08:06;;;;;;;1.52;1.42;;;;;;;;;;5035616;28;20025;-72
2024/01/03 02:10:32;;;;;;;2.85;1.33;;;;;;;;;;5037180;28;20463;-72
2024/01/03 02:12:57;;;;;;;1.48;1.38;;;;;;;;;;5036055;28;20080;-73
2024/01/03 02:15:23;;;;;;;1.38;1.27;;;;;;;;;;5019180;28;20087;-72
2024/01/03 02:17:49;;;;;;;1.77;1.67;;;;;;;;;;5018476;28;20040;-72
2024/01/03 02:20:14;;;;;;;1.50;1.40;;;;;;;;;;5036327;28;20116;-72
2024/01/03 02:22:40;;;;;;;1.60;1.50;;;;;;;;;;5018791;28;20021;-72
2024/01/03 02:25:10;;;;;;;1.50;1.40;;;;;;;;;;5036374;28;20475;-69
2024/01/03 02:27:36;;;;;;;1.52;1.42;;;;;;;;;;5036689;28;20033;-70
2024/01/03 02:30:01;;;;;;;1.17;1.10;;;;;;;;;;5036619;28;20029;-74
2024/01/03 02:32:28;;;;;;;0.95;0.95;;;;;;;;;;5036640;28;20105;-75
2024/01/03 02:34:53;;;;;;;1.48;1.38;;;;;;;;;;5036810;28;20117;-73
2024/01/03 02:37:22;;;;;;;1.48;1.38;;;;;;;;;;5065947;22;20506;-70
2024/01/03 02:40:09;;;;;;;1.30;1.20;;;;;;;;;;5073807;23;20526;-71
2024/01/03 02:46:43;;;;;;;0.82;0.82;;;;;;;;;;5058771;23;20087;-70
2024/01/03 02:49:09;;;;;;;1.27;1.20;;;;;;;;;;5076415;28;20546;-70
2024/01/03 02:51:35;;;;;;;1.00;1.00;;;;;;;;;;5075960;28;20032;-75
2024/01/03 02:54:00;;;;;;;1.50;1.20;;;;;;;;;;5075993;28;20031;-75
2024/01/03 02:56:26;;;;;;;1.23;1.13;;;;;;;;;;5057737;28;20029;-75
2024/01/03 02:58:52;;;;;;;1.02;0.95;;;;;;;;;;5041890;28;20366;-75
2024/01/03 03:01:17;;;;;;;1.00;1.00;;;;;;;;;;5076267;28;20153;-75
2024/01/03 03:03:43;;;;;;;0.70;0.70;;;;;;;;;;5057256;28;20033;-75
2024/01/03 03:06:08;;;;;;;0.80;0.80;;;;;;;;;;5075779;28;20056;-75
2024/01/03 03:08:33;;;;;;;0.77;0.77;;;;;;;;;;5076030;28;20032;-75
2024/01/03 03:10:59;;;;;;;0.95;0.93;;;;;;;;;;5074424;28;20023;-75
2024/01/03 03:13:24;;;;;;;0.80;0.80;;;;;;;;;;5076035;28;20035;-68
2024/01/03 03:15:50;;;;;;;0.88;0.88;;;;;;;;;;5074616;28;20028;-68
2024/01/03 03:18:15;;;;;;;0.98;0.90;;;;;;;;;;5058166;28;20377;-68
2024/01/03 03:20:41;;;;;;;2.38;0.77;;;;;;;;;;5075525;28;20120;-70
2024/01/03 03:23:06;;;;;;;1.13;0.80;;;;;;;;;;5074458;28;20044;-69
2024/01/03 03:25:32;;;;;;;0.80;0.80;;;;;;;;;;5075617;28;20060;-70
2024/01/03 03:27:57;;;;;;;0.77;0.70;;;;;;;;;;5075450;28;20042;-69
2024/01/03 03:30:22;;;;;;;2.22;0.93;;;;;;;;;;5075070;28;20059;-65
2024/01/03 03:32:48;;;;;;;0.98;0.90;;;;;;;;;;5057267;28;20028;-66
2024/01/03 03:35:13;;;;;;;0.80;0.80;;;;;;;;;;5075305;28;20029;-72
2024/01/03 03:37:39;;;;;;;0.98;0.88;;;;;;;;;;5057095;28;20032;-72
2024/01/03 03:40:05;;;;;;;1.83;0.90;;;;;;;;;;5075222;28;20029;-72
2024/01/03 03:42:31;;;;;;;0.93;0.82;;;;;;;;;;5075313;28;20055;-73
2024/01/03 03:44:56;;;;;;;1.48;0.90;;;;;;;;;;5057359;28;20036;-69
2024/01/03 03:47:21;;;;;;;1.15;0.90;;;;;;;;;;5057074;28;20129;-70
2024/01/03 03:49:48;;;;;;;0.90;0.90;;;;;;;;;;5056782;28;20028;-70
2024/01/03 03:52:13;;;;;;;0.95;0.95;;;;;;;;;;5073419;28;20029;-70
2024/01/03 03:54:39;;;;;;;1.10;1.00;;;;;;;;;;5075478;28;20035;-73
2024/01/03 03:57:05;;;;;;;2.17;0.70;;;;;;;;;;5056609;28;20029;-72
2024/01/03 03:59:30;;;;;;;2.08;1.38;;;;;;;;;;5074876;28;20089;-68
2024/01/03 04:01:57;;;;;;;0.95;0.80;;;;;;;;;;5056596;28;20090;-76
2024/01/03 04:04:22;;;;;;;0.88;0.60;;;;;;;;;;5074752;28;20028;-76
2024/01/03 04:06:47;;;;;;;1.80;0.60;;;;;;;;;;5075026;28;20032;-75
2024/01/03 04:09:15;;;;;;;0.60;0.60;;;;;;;;;;5074590;28;20119;-76
2024/01/03 04:11:41;;;;;;;0.63;0.63;;;;;;;;;;5074486;28;20085;-79
2024/01/03 04:14:08;;;;;;;0.90;0.50;;;;;;;;;;5056819;28;20036;-78
2024/01/03 04:16:33;;;;;;;1.10;0.75;;;;;;;;;;5075115;28;20488;-79
2024/01/03 04:18:59;;;;;;;0.73;0.73;;;;;;;;;;5074544;28;20020;-79
2024/01/03 04:21:25;;;;;;;0.70;0.70;;;;;;;;;;5074481;28;20055;-76
2024/01/03 04:23:50;;;;;;;0.70;0.70;;;;;;;;;;5074434;28;20104;-77
2024/01/03 04:26:15;;;;;;;2.15;0.77;;;;;;;;;;5056130;28;20032;-75
2024/01/03 04:28:41;;;;;;;1.67;0.68;;;;;;;;;;5056490;28;20040;-75
2024/01/03 04:31:06;;;;;;;0.77;0.77;;;;;;;;;;5074590;28;20036;-77
2024/01/03 04:33:32;;;;;;;0.77;0.68;;;;;;;;;;5074266;28;20035;-77
2024/01/03 04:35:57;;;;;;;0.70;0.70;;;;;;;;;;5074359;28;20059;-77
2024/01/03 04:38:23;;;;;;;0.68;0.68;;;;;;;;;;5074602;28;20029;-77
2024/01/03 04:40:48;;;;;;;0.60;0.60;;;;;;;;;;5078297;28;20016;-78
2024/01/03 04:43:13;;;;;;;0.88;0.70;;;;;;;;;;5078061;28;20064;-79
2024/01/03 04:45:39;;;;;;;0.73;0.73;;;;;;;;;;5077727;28;20025;-79
2024/01/03 04:48:06;;;;;;;0.68;0.68;;;;;;;;;;5076528;28;20119;-79
2024/01/03 04:50:31;;;;;;;0.70;0.63;;;;;;;;;;5074050;28;20029;-71
2024/01/03 04:52:57;;;;;;;0.77;0.77;;;;;;;;;;5073576;28;20332;-71
2024/01/03 04:55:22;;;;;;;0.70;0.70;;;;;;;;;;5074391;28;20025;-71
2024/01/03 04:57:48;;;;;;;0.88;0.80;;;;;;;;;;5074005;28;20032;-70
2024/01/03 05:00:13;;;;;;;0.60;0.60;;;;;;;;;;5056312;28;20036;-71
2024/01/03 05:02:39;;;;;;;1.17;1.08;;;;;;;;;;5074032;28;20025;-73
2024/01/03 05:05:04;;;;;;;1.05;0.98;;;;;;;;;;5073495;28;20024;-73
2024/01/03 05:07:33;;;;;;;0.88;0.82;;;;;;;;;;5055489;28;20078;-73
2024/01/03 05:09:58;;;;;;;0.90;0.82;;;;;;;;;;5061352;28;20029;-73
2024/01/03 05:12:24;;;;;;;1.60;0.88;;;;;;;;;;5052617;28;20029;-75
2024/01/03 05:14:49;;;;;;;1.10;0.93;;;;;;;;;;5052460;28;20017;-71
2024/01/03 05:17:15;;;;;;;2.08;1.13;;;;;;;;;;5051911;28;20033;-71
2024/01/03 05:19:40;;;;;;;0.80;0.80;;;;;;;;;;5053016;28;20036;-71
2024/01/03 05:22:05;;;;;;;1.58;1.48;;;;;;;;;;5051166;28;20035;-69
2024/01/03 05:24:31;;;;;;;1.20;1.10;;;;;;;;;;5051671;28;20044;-67
2024/01/03 05:26:56;;;;;;;1.35;1.17;;;;;;;;;;5054006;28;20037;-70
2024/01/03 05:29:21;;;;;;;1.13;1.02;;;;;;;;;;5052222;28;20025;-70
2024/01/03 05:31:47;;;;;;;0.80;0.80;;;;;;;;;;5053378;28;20033;-69
2024/01/03 05:34:12;;;;;;;1.67;1.58;;;;;;;;;;5051917;28;20227;-74
2024/01/03 05:36:38;;;;;;;2.42;2.08;;;;;;;;;;5052174;28;20032;-64
2024/01/03 05:39:03;;;;;;;1.05;1.05;;;;;;;;;;5053600;28;20051;-63
2024/01/03 05:41:29;;;;;;;0.90;0.90;;;;;;;;;;5053855;28;20041;-64
2024/01/03 05:43:54;;;;;;;1.20;1.10;;;;;;;;;;5053537;28;20040;-63
2024/01/03 05:46:19;;;;;;;1.20;0.82;;;;;;;;;;5059585;28;20045;-64
2024/01/03 05:48:45;;;;;;;1.10;0.93;;;;;;;;;;5073678;28;20040;-64
2024/01/03 05:51:10;;;;;;;0.95;0.95;;;;;;;;;;5073561;28;20033;-64
2024/01/03 05:53:36;;;;;;;0.88;0.88;;;;;;;;;;5073730;28;20103;-64
2024/01/03 05:56:01;;;;;;;1.10;1.00;;;;;;;;;;5073238;28;20430;-64
2024/01/03 05:58:26;;;;;;;1.15;1.05;;;;;;;;;;5073763;28;20078;-63
2024/01/03 06:00:53;;;;;;;1.05;0.98;;;;;;;;;;5073191;28;20068;-63
2024/01/03 06:03:18;;;;;;;1.20;0.90;;;;;;;;;;5073200;28;20056;-64
2024/01/03 06:05:43;;;;;;;3.25;1.02;;;;;;;;;;5073341;28;20481;-63
2024/01/03 06:08:10;;;;;;;0.80;0.80;;;;;;;;;;5073551;28;20378;-64
2024/01/03 06:10:36;;;;;;;1.17;1.02;;;;;;;;;;5073476;28;20096;-63
2024/01/03 06:13:01;;;;;;;1.23;1.10;;;;;;;;;;5055403;28;20057;-63
2024/01/03 06:15:27;;;;;;;0.90;0.90;;;;;;;;;;5072973;28;20021;-63
2024/01/03 06:17:52;;;;;;;1.00;0.90;;;;;;;;;;5072905;28;20024;-63
2024/01/03 06:20:18;;;;;;;1.63;1.15;;;;;;;;;;5075353;28;20477;-63
2024/01/03 06:22:43;;;;;;;1.33;1.13;;;;;;;;;;5076493;28;20020;-63
2024/01/03 06:25:09;;;;;;;1.02;1.02;;;;;;;;;;5076404;28;20488;-63
2024/01/03 06:27:35;;;;;;;1.50;1.17;;;;;;;;;;5076985;28;20526;-64
2024/01/03 06:30:00;;;;;;;1.73;1.17;;;;;;;;;;5058729;28;20471;-64
2024/01/03 06:32:26;;;;;;;0.93;0.93;;;;;;;;;;5076200;28;20028;-63
2024/01/03 06:34:51;;;;;;;0.88;0.88;;;;;;;;;;5075958;28;20024;-63
2024/01/03 06:37:17;;;;;;;1.45;1.35;;;;;;;;;;5075389;28;20028;-64
2024/01/03 06:39:42;;;;;;;1.10;1.00;;;;;;;;;;5074719;28;20032;-64
2024/01/03 06:42:08;;;;;;;1.35;1.25;;;;;;;;;;5075104;28;20036;-64
2024/01/03 06:44:33;;;;;;;1.63;1.52;;;;;;;;;;5057157;28;20032;-63
2024/01/03 06:46:58;;;;;;;1.60;1.40;;;;;;;;;;5074751;28;20040;-64
2024/01/03 06:49:24;;;;;;;2.35;1.25;;;;;;;;;;5075519;28;20029;-63
2024/01/03 06:51:49;;;;;;;3.38;1.40;;;;;;;;;;5076313;28;20064;-63
2024/01/03 06:54:15;;;;;;;2.08;1.38;;;;;;;;;;5076446;28;20050;-64
2024/01/03 06:56:40;;;;;;;2.55;1.45;;;;;;;;;;5041283;28;20483;-63
2024/01/03 06:59:05;;;;;;;1.85;1.35;;;;;;;;;;5075802;28;20560;-63
2024/01/03 07:01:31;;;;;;;1.33;1.23;;;;;;;;;;5057919;28;20082;-64
2024/01/03 07:03:58;;;;;;;1.98;1.42;;;;;;;;;;5076013;28;20055;-64
2024/01/03 07:06:24;;;;;;;2.67;1.35;;;;;;;;;;5075710;28;20473;-63
2024/01/03 07:08:51;;;;;;;1.85;1.67;;;;;;;;;;5075525;28;20020;-63
2024/01/03 07:11:17;;;;;;;1.35;1.25;;;;;;;;;;5075901;28;20024;-64
2024/01/03 07:13:42;;;;;;;1.42;1.15;;;;;;;;;;5075842;28;20044;-63
2024/01/03 07:16:11;;;;;;;1.45;1.35;;;;;;;;;;5057770;28;20399;-63
2024/01/03 07:18:36;;;;;;;2.78;1.70;;;;;;;;;;5075460;28;20024;-63
2024/01/03 07:21:01;;;;;;;2.30;1.58;;;;;;;;;;5075939;28;20044;-64
2024/01/03 07:23:27;;;;;;;1.65;1.55;;;;;;;;;;5075373;28;20117;-63
2024/01/03 07:25:52;;;;;;;1.38;1.27;;;;;;;;;;5061201;22;20061;-66
2024/01/03 07:28:18;;;;;;;1.70;1.52;;;;;;;;;;5072713;22;20029;-64
2024/01/03 07:30:44;;;;;;;1.80;1.48;;;;;;;;;;5086997;22;20057;-64
2024/01/03 07:33:09;;;;;;;1.50;1.40;;;;;;;;;;5073745;28;20474;-64
2024/01/03 07:35:34;;;;;;;1.65;1.40;;;;;;;;;;5057847;28;20052;-64
2024/01/03 07:38:00;;;;;;;1.30;1.20;;;;;;;;;;5075024;28;20382;-63
2024/01/03 07:40:25;;;;;;;1.58;1.30;;;;;;;;;;5075265;28;20036;-63
2024/01/03 07:42:50;;;;;;;1.55;1.27;;;;;;;;;;5074968;28;20043;-63
2024/01/03 07:45:16;;;;;;;1.83;1.13;;;;;;;;;;5074895;28;20035;-63
2024/01/03 07:47:41;;;;;;;1.70;1.33;;;;;;;;;;5074867;28;20032;-63
2024/01/03 07:50:07;;;;;;;2.78;1.50;;;;;;;;;;5056910;28;20100;-63
2024/01/03 07:52:32;;;;;;;1.73;1.63;;;;;;;;;;5075318;28;20477;-64
2024/01/03 07:54:57;;;;;;;2.05;1.42;;;;;;;;;;5074692;28;20016;-64
2024/01/03 07:57:23;;;;;;;1.88;1.77;;;;;;;;;;5074672;28;20031;-63
2024/01/03 07:59:48;;;;;;;2.13;1.65;;;;;;;;;;5074633;28;20037;-64
2024/01/03 08:02:13;;;;;;;2.08;1.88;;;;;;;;;;5074561;28;20462;-63
2024/01/03 08:04:40;;;;;;;1.38;1.27;;;;;;;;;;5073261;28;20035;-63
2024/01/03 08:07:05;;;;;;;3.35;1.77;;;;;;;;;;5039936;28;20127;-63
2024/01/03 08:09:32;;;;;;;2.72;1.70;;;;;;;;;;5074381;28;20115;-63
2024/01/03 08:11:58;;;;;;;1.25;1.15;;;;;;;;;;5074707;28;20017;-63
2024/01/03 08:14:23;;;;;;;2.10;1.55;;;;;;;;;;5074867;28;20029;-64
2024/01/03 08:16:49;;;;;;;2.13;1.92;;;;;;;;;;5056292;28;20074;-63
2024/01/03 08:19:14;;;;;;;2.03;1.83;;;;;;;;;;5074822;28;20111;-64
2024/01/03 08:21:39;;;;;;;2.40;1.90;;;;;;;;;;5074181;28;20495;-63
2024/01/03 08:24:06;;;;;;;2.50;1.95;;;;;;;;;;5074409;28;20036;-64
2024/01/03 08:26:32;;;;;;;1.95;1.75;;;;;;;;;;5074401;28;20024;-63
2024/01/03 08:28:58;;;;;;;2.03;1.77;;;;;;;;;;5072765;28;20040;-63
2024/01/03 08:31:23;;;;;;;1.52;1.40;;;;;;;;;;5073846;28;20036;-63
2024/01/03 08:33:49;;;;;;;1.95;1.50;;;;;;;;;;5074001;28;20037;-71
2024/01/03 08:36:15;;;;;;;1.98;1.50;;;;;;;;;;5074307;28;20467;-72
2024/01/03 08:38:40;;;;;;;2.05;1.85;;;;;;;;;;5073933;28;20117;-71
2024/01/03 08:41:16;;;;;;;2.05;1.50;;;;;;;;;;5073982;28;20023;-71
2024/01/03 08:43:41;;;;;;;1.60;1.50;;;;;;;;;;5074135;28;20373;-71
2024/01/03 08:46:07;;;;;;;1.58;1.48;;;;;;;;;;5074152;28;20024;-71
2024/01/03 08:48:33;;;;;;;1.55;1.45;;;;;;;;;;5055913;28;20031;-72
2024/01/03 08:50:58;;;;;;;2.15;1.77;;;;;;;;;;5087442;22;20052;-71
2024/01/03 08:53:23;;;;;;;1.83;1.70;;;;;;;;;;5073807;28;20074;-72
2024/01/03 08:55:49;;;;;;;1.83;1.60;;;;;;;;;;5073760;28;20481;-72
2024/01/03 08:58:14;;;;;;;3.33;1.58;;;;;;;;;;5055762;28;20023;-72
2024/01/03 09:00:42;;;;;;;1.73;1.55;;;;;;;;;;5074249;28;20082;-72
2024/01/03 09:03:07;;;;;;;2.30;1.67;;;;;;;;;;5073673;28;20028;-72
2024/01/03 09:05:33;;;;;;;1.77;1.52;;;;;;;;;;5073660;28;20043;-72
2024/01/03 09:07:58;;;;;;;2.03;1.70;;;;;;;;;;5073633;28;20138;-72
2024/01/03 09:10:23;;;;;;;2.60;1.80;;;;;;;;;;5073574;28;20463;-72
2024/01/03 09:12:49;;;;;;;1.83;1.73;;;;;;;;;;5073894;28;20067;-63
2024/01/03 09:15:15;;;;;;;1.23;1.13;;;;;;;;;;5073595;28;20025;-63
2024/01/03 09:17:42;;;;;;;1.77;1.67;;;;;;;;;;5074085;28;20024;-63
2024/01/03 09:20:09;;;;;;;2.05;1.58;;;;;;;;;;5073513;28;20040;-63
2024/01/03 09:22:34;;;;;;;2.05;1.55;;;;;;;;;;5038976;28;20032;-63
2024/01/03 09:25:00;;;;;;;2.83;2.10;;;;;;;;;;5056170;28;20035;-63
2024/01/03 09:27:25;;;;;;;1.20;1.15;;;;;;;;;;5073443;28;20386;-64
2024/01/03 09:29:50;;;;;;;2.00;1.58;;;;;;;;;;5056033;28;20036;-64
2024/01/03 09:32:16;;;;;;;2.35;1.63;;;;;;;;;;5073698;28;20112;-63
2024/01/03 09:34:42;;;;;;;2.00;1.63;;;;;;;;;;5073397;28;20030;-64
2024/01/03 09:37:07;;;;;;;2.05;1.45;;;;;;;;;;5073361;28;20449;-63
2024/01/03 09:39:33;;;;;;;1.92;1.73;;;;;;;;;;5073310;28;20123;-63
2024/01/03 09:41:59;;;;;;;2.38;1.55;;;;;;;;;;5073317;28;20071;-63
2024/01/03 09:44:26;;;;;;;2.53;2.13;;;;;;;;;;5055734;28;20064;-63
2024/01/03 09:46:52;;;;;;;1.92;1.67;;;;;;;;;;5055953;28;20036;-63
2024/01/03 09:49:18;;;;;;;2.08;1.88;;;;;;;;;;5073191;28;20462;-63
2024/01/03 09:51:46;;;;;;;2.30;1.75;;;;;;;;;;5073098;28;20033;-63
2024/01/03 09:54:11;;;;;;;3.28;2.20;;;;;;;;;;5074388;28;20082;-63
2024/01/03 09:56:38;;;;;;;2.22;2.03;;;;;;;;;;5077569;28;20025;-62
2024/01/03 09:59:03;;;;;;;1.60;1.40;;;;;;;;;;5077727;28;20039;-62
2024/01/03 10:01:29;;;;;;;2.42;1.83;;;;;;;;;;5042447;28;20021;-63
2024/01/03 10:03:54;;;;;;;2.60;2.05;;;;;;;;;;5077158;28;20028;-63
2024/01/03 10:06:19;;;;;;;2.10;1.75;;;;;;;;;;5076810;28;20478;-63
2024/01/03 10:09:03;;;;;;;3.10;2.05;;;;;;;;;;5076724;28;20478;-63
2024/01/03 10:11:29;;;;;;;2.30;1.98;;;;;;;;;;5076734;28;20077;-63
2024/01/03 10:13:55;;;;;;;2.80;1.83;;;;;;;;;;5076970;28;20036;-63
2024/01/03 10:16:27;;;;;;;2.10;1.85;;;;;;;;;;5076627;28;20048;-63
2024/01/03 10:19:26;;;;;;;1.50;1.40;;;;;;;;;;5076849;28;20082;-63
2024/01/03 10:21:52;;;;;;;1.83;1.55;;;;;;;;;;5061884;28;20063;-64
2024/01/03 10:24:19;;;;;;;1.67;1.58;;;;;;;;;;5076496;28;20064;-63
2024/01/03 10:26:45;;;;;;;1.55;1.40;;;;;;;;;;5058573;28;20107;-63
2024/01/03 10:29:10;;;;;;;2.65;1.70;;;;;;;;;;5076564;28;20390;-63
2024/01/03 10:31:36;;;;;;;3.85;2.17;;;;;;;;;;5076365;28;20038;-63
2024/01/03 10:34:03;;;;;;;2.08;1.83;;;;;;;;;;5076659;28;20013;-63
2024/01/03 10:36:31;;;;;;;3.25;1.80;;;;;;;;;;5076287;28;20405;-63
2024/01/03 10:38:58;;;;;;;3.60;1.67;;;;;;;;;;5076258;28;20036;-63
2024/01/03 10:41:24;;;;;;;1.35;1.25;;;;;;;;;;5076207;28;20029;-63
2024/01/03 10:43:50;;;;;;;2.35;1.80;;;;;;;;;;5058595;28;20029;-63
2024/01/03 10:46:17;;;;;;;2.25;1.92;;;;;;;;;;5058165;28;20070;-63
2024/01/03 10:48:43;;;;;;;3.45;1.95;;;;;;;;;;5076382;28;20028;-63
2024/01/03 10:51:11;;;;;;;3.42;2.08;;;;;;;;;;5089865;22;20462;-72
2024/01/03 10:53:38;;;;;;;4.13;1.70;;;;;;;;;;5076230;28;20580;-72
2024/01/03 10:56:04;;;;;;;2.05;1.83;;;;;;;;;;5075922;28;20017;-72
2024/01/03 10:58:29;;;;;;;2.58;2.35;;;;;;;;;;5075901;28;20478;-72
2024/01/03 11:01:07;;;;;;;2.30;2.03;;;;;;;;;;5074569;28;20031;-72
2024/01/03 11:03:53;;;;;;;5.13;1.92;;;;;;;;;;5076019;28;20024;-72
2024/01/03 11:06:23;;;;;;;5.03;2.13;;;;;;;;;;5057481;28;20029;-72
2024/01/03 11:08:57;;;;;;;3.72;2.53;;;;;;;;;;5075862;28;20036;-72
2024/01/03 11:11:29;;;;;;;5.13;2.20;;;;;;;;;;5075622;28;20059;-72
2024/01/03 11:13:55;;;;;;;3.17;1.75;;;;;;;;;;5076119;28;20029;-72
2024/01/03 11:16:41;;;;;;;5.18;2.00;;;;;;;;;;5057550;28;20024;-72
2024/01/03 11:19:08;;;;;;;2.83;2.25;;;;;;;;;;5074991;28;20505;-72
2024/01/03 11:21:37;;;;;;;2.63;2.40;;;;;;;;;;5057516;28;20021;-72
2024/01/03 11:24:03;;;;;;;2.58;2.08;;;;;;;;;;5075677;28;20039;-72
2024/01/03 11:27:03;;;;;;;3.05;2.33;;;;;;;;;;5075626;28;20370;-72
2024/01/03 11:29:41;;;;;;;3.00;2.05;;;;;;;;;;5075510;28;20024;-72
2024/01/03 11:32:07;;;;;;;2.63;1.98;;;;;;;;;;5057981;28;20093;-72
2024/01/03 11:34:39;;;;;;;2.75;1.85;;;;;;;;;;5075169;28;20099;-72
2024/01/03 11:37:16;;;;;;;3.55;1.40;;;;;;;;;;5057192;28;20086;-72
2024/01/03 11:39:43;;;;;;;4.80;2.20;;;;;;;;;;5057140;28;20033;-72
2024/01/03 11:42:09;;;;;;;2.45;1.58;;;;;;;;;;5075002;28;20028;-72
2024/01/03 11:44:34;;;;;;;2.63;2.08;;;;;;;;;;5074983;28;20488;-72
2024/01/03 11:47:03;;;;;;;3.17;1.73;;;;;;;;;;5075188;28;20059;-72
2024/01/03 11:49:28;;;;;;;2.78;1.70;;;;;;;;;;5075063;28;20107;-72
2024/01/03 11:51:55;;;;;;;2.05;1.95;;;;;;;;;;5056897;28;20041;-63
2024/01/03 11:54:20;;;;;;;2.10;1.90;;;;;;;;;;5074719;28;20033;-63
2024/01/03 11:56:45;;;;;;;2.20;1.95;;;;;;;;;;5074716;28;20462;-63
2024/01/03 11:59:11;;;;;;;2.38;2.05;;;;;;;;;;5074898;28;20086;-63
2024/01/03 12:01:36;;;;;;;2.85;2.08;;;;;;;;;;5074600;28;20040;-63
2024/01/03 12:04:08;;;;;;;2.75;2.25;;;;;;;;;;5074863;28;20032;-64
2024/01/03 12:06:34;;;;;;;3.53;2.45;;;;;;;;;;5074810;28;20127;-63
2024/01/03 12:08:59;;;;;;;5.00;2.50;;;;;;;;;;5074394;28;20462;-63
2024/01/03 12:11:25;;;;;;;2.95;2.58;;;;;;;;;;5073278;28;20032;-63
2024/01/03 12:13:51;;;;;;;3.60;2.45;;;;;;;;;;5074652;28;20048;-71
2024/01/03 12:16:16;;;;;;;2.55;1.90;;;;;;;;;;5074576;28;20113;-72
2024/01/03 12:19:08;;;;;;;3.72;2.25;;;;;;;;;;5073749;28;20021;-63
2024/01/03 12:21:33;;;;;;;3.40;1.83;;;;;;;;;;5051538;28;20051;-63
2024/01/03 12:24:02;;;;;;;4.22;2.30;;;;;;;;;;5074476;28;20033;-63
2024/01/03 12:26:28;;;;;;;3.35;1.98;;;;;;;;;;5073258;28;20029;-63
2024/01/03 12:29:03;;;;;;;2.70;1.55;;;;;;;;;;5056148;28;20024;-63
2024/01/03 12:31:29;;;;;;;3.00;2.25;;;;;;;;;;5074333;28;20025;-63
2024/01/03 12:34:04;;;;;;;3.38;2.25;;;;;;;;;;5074080;28;20031;-63
2024/01/03 12:36:30;;;;;;;2.65;2.00;;;;;;;;;;5074286;28;20020;-71
2024/01/03 12:38:58;;;;;;;5.05;2.50;;;;;;;;;;5056154;28;20473;-72
2024/01/03 12:41:24;;;;;;;5.80;2.15;;;;;;;;;;5073942;28;20025;-71
2024/01/03 12:43:49;;;;;;;3.75;2.50;;;;;;;;;;5073923;28;20016;-72
2024/01/03 12:46:14;;;;;;;4.68;2.45;;;;;;;;;;5074184;28;20036;-72
2024/01/03 12:48:40;;;;;;;2.33;1.70;;;;;;;;;;5073846;28;20445;-72
2024/01/03 12:51:05;;;;;;;5.60;2.28;;;;;;;;;;5055582;28;20033;-71
2024/01/03 12:53:30;;;;;;;3.92;2.40;;;;;;;;;;5055927;28;20021;-72
2024/01/03 12:55:56;;;;;;;2.30;2.03;;;;;;;;;;5073760;28;20458;-71
2024/01/03 12:58:21;;;;;;;3.10;2.00;;;;;;;;;;5073717;28;20020;-72
2024/01/03 13:00:46;;;;;;;3.00;2.20;;;;;;;;;;5074359;28;20123;-72
2024/01/03 13:03:12;;;;;;;2.10;1.95;;;;;;;;;;5072612;28;20024;-73
2024/01/03 13:05:37;;;;;;;2.17;1.65;;;;;;;;;;5073768;28;20517;-71
2024/01/03 13:08:03;;;;;;;2.13;1.58;;;;;;;;;;5073876;28;20040;-72
2024/01/03 13:10:30;;;;;;;2.95;1.92;;;;;;;;;;5073828;28;20068;-71
2024/01/03 13:12:55;;;;;;;2.63;2.40;;;;;;;;;;5073583;28;20033;-71
2024/01/03 13:15:21;;;;;;;2.13;1.65;;;;;;;;;;5073557;28;20082;-71
2024/01/03 13:17:46;;;;;;;6.05;2.85;;;;;;;;;;5073557;28;20098;-72
2024/01/03 13:20:13;;;;;;;2.65;1.25;;;;;;;;;;5073537;28;20036;-72
2024/01/03 13:22:38;;;;;;;2.70;2.05;;;;;;;;;;5055533;28;20474;-73
2024/01/03 13:25:04;;;;;;;4.75;2.90;;;;;;;;;;5073444;28;20154;-72
2024/01/03 13:27:30;;;;;;;2.17;1.98;;;;;;;;;;5073480;28;20029;-73
2024/01/03 13:29:55;;;;;;;3.33;2.60;;;;;;;;;;5076960;28;20063;-64
2024/01/03 13:32:22;;;;;;;4.20;3.08;;;;;;;;;;5077684;28;20059;-64
2024/01/03 13:34:47;;;;;;;3.70;3.03;;;;;;;;;;5077529;28;20036;-64
2024/01/03 13:37:12;;;;;;;5.40;2.63;;;;;;;;;;5059743;28;20016;-64
2024/01/03 13:39:38;;;;;;;4.10;2.88;;;;;;;;;;5077051;28;20077;-64
2024/01/03 13:42:03;;;;;;;4.32;3.17;;;;;;;;;;5077521;28;20036;-65
2024/01/03 13:44:29;;;;;;;3.38;2.60;;;;;;;;;;5077242;28;20043;-64
2024/01/03 13:46:54;;;;;;;3.60;2.13;;;;;;;;;;5042651;28;20021;-64
2024/01/03 13:49:21;;;;;;;4.15;2.33;;;;;;;;;;5076905;28;20044;-64
2024/01/03 13:51:48;;;;;;;2.95;2.60;;;;;;;;;;5058600;28;20402;-65
2024/01/03 13:54:14;;;;;;;2.65;1.98;;;;;;;;;;5075029;28;20017;-64
2024/01/03 13:56:40;;;;;;;4.22;2.47;;;;;;;;;;5075138;28;20025;-64
2024/01/03 13:59:08;;;;;;;4.75;2.53;;;;;;;;;;5074086;28;20094;-64
2024/01/03 14:01:33;;;;;;;4.18;2.88;;;;;;;;;;5074058;28;20042;-64
2024/01/03 14:03:59;;;;;;;4.45;2.75;;;;;;;;;;5057564;28;20104;-65
2024/01/03 14:06:24;;;;;;;3.88;2.90;;;;;;;;;;5075115;28;20032;-64
2024/01/03 14:08:51;;;;;;;7.28;2.42;;;;;;;;;;5076077;28;20024;-64
2024/01/03 14:11:18;;;;;;;3.75;2.75;;;;;;;;;;5076720;28;20426;-65
2024/01/03 14:13:44;;;;;;;6.13;2.85;;;;;;;;;;5059174;28;20032;-64
2024/01/03 14:16:10;;;;;;;2.97;2.53;;;;;;;;;;5075775;28;20028;-65
2024/01/03 14:18:35;;;;;;;3.33;2.67;;;;;;;;;;5076935;28;20032;-65
2024/01/03 14:21:02;;;;;;;5.13;2.40;;;;;;;;;;5076903;28;20020;-65
2024/01/03 14:23:27;;;;;;;4.20;2.42;;;;;;;;;;5076875;28;20036;-62
2024/01/03 14:25:53;;;;;;;3.22;2.30;;;;;;;;;;5076559;28;20498;-64
2024/01/03 14:28:19;;;;;;;4.15;2.45;;;;;;;;;;5075456;28;20043;-64
2024/01/03 14:30:45;;;;;;;2.95;2.20;;;;;;;;;;5076245;28;20032;-64
2024/01/03 14:33:10;;;;;;;2.25;2.05;;;;;;;;;;5076684;28;20098;-72
2024/01/03 14:35:38;;;;;;;4.80;2.20;;;;;;;;;;5058359;28;21138;-71
2024/01/03 14:38:03;;;;;;;4.00;2.03;;;;;;;;;;5066630;28;20048;-72
2024/01/03 14:40:29;;;;;;;2.65;2.38;;;;;;;;;;5064927;28;20056;-62
2024/01/03 14:43:02;;;;;;;3.25;2.20;;;;;;;;;;5067350;28;20025;-62
2024/01/03 14:45:28;;;;;;;2.47;1.73;;;;;;;;;;5076660;28;20070;-65
2024/01/03 14:47:53;;;;;;;4.97;2.75;;;;;;;;;;5076294;28;20033;-64
2024/01/03 14:50:19;;;;;;;2.90;2.28;;;;;;;;;;5076280;28;20048;-61